sensor_id;sensor_type;location;lat;lon;timestamp;P1;durP1;ratioP1;P2;durP2;ratioP2
52043;SDS011;38053;53.100;6.078;2023-04-15T00:01:23;12.80;;;4.68;;
52043;SDS011;38053;53.100;6.078;2023-04-15T00:03:52;11.63;;;4.30;;
52043;SDS011;38053;53.100;6.078;2023-04-15T00:06:19;14.07;;;5.07;;
52043;SDS011;38053;53.100;6.078;2023-04-15T00:08:45;12.48;;;4.68;;
52043;SDS011;38053;53.100;6.078;2023-04-15T00:11:13;17.55;;;5.53;;
52043;SDS011;38053;53.100;6.078;2023-04-15T00:13:39;22.58;;;5.28;;
52043;SDS011;38053;53.100;6.078;2023-04-15T00:16:06;10.63;;;4.45;;
52043;SDS011;38053;53.100;6.078;2023-04-15T00:18:32;13.50;;;5.10;;
52043;SDS011;38053;53.100;6.078;2023-04-15T00:20:59;16.60;;;5.43;;
52043;SDS011;38053;53.100;6.078;2023-04-15T00:23:25;10.15;;;4.55;;
52043;SDS011;38053;53.100;6.078;2023-04-15T00:25:52;18.02;;;6.43;;
52043;SDS011;38053;53.100;6.078;2023-04-15T00:28:17;15.02;;;7.03;;
52043;SDS011;38053;53.100;6.078;2023-04-15T00:30:43;14.85;;;5.97;;
52043;SDS011;38053;53.100;6.078;2023-04-15T00:33:13;18.25;;;6.07;;
52043;SDS011;38053;53.100;6.078;2023-04-15T00:38:09;12.93;;;5.80;;
52043;SDS011;38053;53.100;6.078;2023-04-15T00:40:35;16.55;;;6.15;;
52043;SDS011;38053;53.100;6.078;2023-04-15T00:43:02;12.23;;;6.53;;
52043;SDS011;38053;53.100;6.078;2023-04-15T00:45:28;14.45;;;6.25;;
52043;SDS011;38053;53.100;6.078;2023-04-15T00:47:54;15.07;;;7.13;;
52043;SDS011;38053;53.100;6.078;2023-04-15T00:50:21;21.65;;;6.70;;
52043;SDS011;38053;53.100;6.078;2023-04-15T00:52:47;17.50;;;6.88;;
52043;SDS011;38053;53.100;6.078;2023-04-15T00:55:12;16.60;;;6.32;;
52043;SDS011;38053;53.100;6.078;2023-04-15T00:57:40;16.73;;;7.95;;
52043;SDS011;38053;53.100;6.078;2023-04-15T01:00:06;15.02;;;6.85;;
52043;SDS011;38053;53.100;6.078;2023-04-15T01:02:33;12.45;;;6.45;;
52043;SDS011;38053;53.100;6.078;2023-04-15T01:05:00;15.05;;;6.68;;
52043;SDS011;38053;53.100;6.078;2023-04-15T01:07:26;15.20;;;7.22;;
52043;SDS011;38053;53.100;6.078;2023-04-15T01:09:52;15.93;;;7.47;;
52043;SDS011;38053;53.100;6.078;2023-04-15T01:12:18;20.95;;;7.78;;
52043;SDS011;38053;53.100;6.078;2023-04-15T01:14:47;17.15;;;8.35;;
52043;SDS011;38053;53.100;6.078;2023-04-15T01:17:13;12.43;;;6.88;;
52043;SDS011;38053;53.100;6.078;2023-04-15T01:19:39;21.17;;;7.32;;
52043;SDS011;38053;53.100;6.078;2023-04-15T01:22:05;19.13;;;9.18;;
52043;SDS011;38053;53.100;6.078;2023-04-15T01:24:31;16.23;;;8.45;;
52043;SDS011;38053;53.100;6.078;2023-04-15T01:26:58;14.55;;;6.85;;
52043;SDS011;38053;53.100;6.078;2023-04-15T01:29:24;24.65;;;7.90;;
52043;SDS011;38053;53.100;6.078;2023-04-15T01:31:52;12.70;;;7.10;;
52043;SDS011;38053;53.100;6.078;2023-04-15T01:34:20;18.13;;;8.15;;
52043;SDS011;38053;53.100;6.078;2023-04-15T01:36:46;13.38;;;7.80;;
52043;SDS011;38053;53.100;6.078;2023-04-15T01:39:12;26.00;;;8.80;;
52043;SDS011;38053;53.100;6.078;2023-04-15T01:41:39;17.30;;;8.18;;
52043;SDS011;38053;53.100;6.078;2023-04-15T01:44:06;18.58;;;9.20;;
52043;SDS011;38053;53.100;6.078;2023-04-15T01:46:32;20.13;;;9.10;;
52043;SDS011;38053;53.100;6.078;2023-04-15T01:48:58;14.95;;;7.75;;
52043;SDS011;38053;53.100;6.078;2023-04-15T01:51:23;18.95;;;8.93;;
52043;SDS011;38053;53.100;6.078;2023-04-15T01:53:49;24.38;;;10.05;;
52043;SDS011;38053;53.100;6.078;2023-04-15T01:56:16;21.02;;;8.35;;
52043;SDS011;38053;53.100;6.078;2023-04-15T01:58:42;25.05;;;10.18;;
52043;SDS011;38053;53.100;6.078;2023-04-15T02:01:08;17.17;;;9.27;;
52043;SDS011;38053;53.100;6.078;2023-04-15T02:03:37;21.45;;;9.88;;
52043;SDS011;38053;53.100;6.078;2023-04-15T02:06:03;25.58;;;9.13;;
52043;SDS011;38053;53.100;6.078;2023-04-15T02:08:30;16.05;;;9.35;;
52043;SDS011;38053;53.100;6.078;2023-04-15T02:10:56;19.17;;;10.35;;
52043;SDS011;38053;53.100;6.078;2023-04-15T02:13:22;20.35;;;9.10;;
52043;SDS011;38053;53.100;6.078;2023-04-15T02:15:48;20.38;;;10.85;;
52043;SDS011;38053;53.100;6.078;2023-04-15T02:18:16;20.80;;;10.02;;
52043;SDS011;38053;53.100;6.078;2023-04-15T02:20:42;18.90;;;10.10;;
52043;SDS011;38053;53.100;6.078;2023-04-15T02:23:08;25.70;;;10.10;;
52043;SDS011;38053;53.100;6.078;2023-04-15T02:25:38;20.02;;;9.63;;
52043;SDS011;38053;53.100;6.078;2023-04-15T02:28:07;19.30;;;10.40;;
52043;SDS011;38053;53.100;6.078;2023-04-15T02:30:32;21.55;;;11.73;;
52043;SDS011;38053;53.100;6.078;2023-04-15T02:33:01;17.58;;;10.57;;
52043;SDS011;38053;53.100;6.078;2023-04-15T02:35:27;26.55;;;10.70;;
52043;SDS011;38053;53.100;6.078;2023-04-15T02:37:54;20.45;;;9.73;;
52043;SDS011;38053;53.100;6.078;2023-04-15T02:40:20;24.17;;;11.02;;
52043;SDS011;38053;53.100;6.078;2023-04-15T02:42:45;18.08;;;10.07;;
52043;SDS011;38053;53.100;6.078;2023-04-15T02:45:11;17.95;;;10.80;;
52043;SDS011;38053;53.100;6.078;2023-04-15T02:47:37;17.35;;;9.73;;
52043;SDS011;38053;53.100;6.078;2023-04-15T02:50:09;20.55;;;11.60;;
52043;SDS011;38053;53.100;6.078;2023-04-15T02:52:40;20.83;;;11.50;;
52043;SDS011;38053;53.100;6.078;2023-04-15T02:55:06;19.45;;;10.68;;
52043;SDS011;38053;53.100;6.078;2023-04-15T02:57:33;21.05;;;10.75;;
52043;SDS011;38053;53.100;6.078;2023-04-15T03:00:02;20.70;;;11.98;;
52043;SDS011;38053;53.100;6.078;2023-04-15T03:02:37;22.23;;;12.32;;
52043;SDS011;38053;53.100;6.078;2023-04-15T03:05:04;17.85;;;10.15;;
52043;SDS011;38053;53.100;6.078;2023-04-15T03:07:31;17.10;;;11.23;;
52043;SDS011;38053;53.100;6.078;2023-04-15T03:09:59;19.45;;;11.80;;
52043;SDS011;38053;53.100;6.078;2023-04-15T03:12:26;20.35;;;10.80;;
52043;SDS011;38053;53.100;6.078;2023-04-15T03:14:52;18.35;;;10.93;;
52043;SDS011;38053;53.100;6.078;2023-04-15T03:17:21;25.90;;;13.75;;
52043;SDS011;38053;53.100;6.078;2023-04-15T03:19:46;19.98;;;11.38;;
52043;SDS011;38053;53.100;6.078;2023-04-15T03:22:12;19.05;;;10.63;;
52043;SDS011;38053;53.100;6.078;2023-04-15T03:24:38;17.95;;;11.60;;
52043;SDS011;38053;53.100;6.078;2023-04-15T03:27:04;17.02;;;11.45;;
52043;SDS011;38053;53.100;6.078;2023-04-15T03:29:30;22.27;;;11.52;;
52043;SDS011;38053;53.100;6.078;2023-04-15T03:31:56;22.20;;;12.90;;
52043;SDS011;38053;53.100;6.078;2023-04-15T03:34:21;16.90;;;12.23;;
52043;SDS011;38053;53.100;6.078;2023-04-15T03:36:47;17.92;;;11.52;;
52043;SDS011;38053;53.100;6.078;2023-04-15T03:39:13;19.17;;;10.18;;
52043;SDS011;38053;53.100;6.078;2023-04-15T03:41:38;21.13;;;11.50;;
52043;SDS011;38053;53.100;6.078;2023-04-15T03:44:04;22.70;;;13.00;;
52043;SDS011;38053;53.100;6.078;2023-04-15T03:46:30;24.75;;;12.63;;
52043;SDS011;38053;53.100;6.078;2023-04-15T03:48:56;22.98;;;13.07;;
52043;SDS011;38053;53.100;6.078;2023-04-15T03:51:21;19.92;;;11.40;;
52043;SDS011;38053;53.100;6.078;2023-04-15T03:53:47;18.00;;;12.82;;
52043;SDS011;38053;53.100;6.078;2023-04-15T03:56:13;23.85;;;13.48;;
52043;SDS011;38053;53.100;6.078;2023-04-15T03:58:38;20.63;;;12.25;;
52043;SDS011;38053;53.100;6.078;2023-04-15T04:01:04;21.75;;;13.60;;
52043;SDS011;38053;53.100;6.078;2023-04-15T04:03:30;27.13;;;13.85;;
52043;SDS011;38053;53.100;6.078;2023-04-15T04:05:56;19.42;;;13.63;;
52043;SDS011;38053;53.100;6.078;2023-04-15T04:08:21;27.63;;;14.00;;
52043;SDS011;38053;53.100;6.078;2023-04-15T04:10:47;22.27;;;14.07;;
52043;SDS011;38053;53.100;6.078;2023-04-15T04:13:13;24.83;;;14.05;;
52043;SDS011;38053;53.100;6.078;2023-04-15T04:15:38;23.05;;;15.52;;
52043;SDS011;38053;53.100;6.078;2023-04-15T04:18:07;22.33;;;14.50;;
52043;SDS011;38053;53.100;6.078;2023-04-15T04:20:33;24.85;;;15.45;;
52043;SDS011;38053;53.100;6.078;2023-04-15T04:22:59;23.70;;;16.05;;
52043;SDS011;38053;53.100;6.078;2023-04-15T04:25:25;22.65;;;15.60;;
52043;SDS011;38053;53.100;6.078;2023-04-15T04:27:51;25.27;;;15.93;;
52043;SDS011;38053;53.100;6.078;2023-04-15T04:30:17;25.38;;;15.90;;
52043;SDS011;38053;53.100;6.078;2023-04-15T04:32:42;28.38;;;15.60;;
52043;SDS011;38053;53.100;6.078;2023-04-15T04:35:08;29.73;;;16.13;;
52043;SDS011;38053;53.100;6.078;2023-04-15T04:37:34;29.17;;;17.50;;
52043;SDS011;38053;53.100;6.078;2023-04-15T04:40:00;28.77;;;17.15;;
52043;SDS011;38053;53.100;6.078;2023-04-15T04:42:26;27.70;;;15.88;;
52043;SDS011;38053;53.100;6.078;2023-04-15T04:44:51;31.13;;;17.23;;
52043;SDS011;38053;53.100;6.078;2023-04-15T04:47:17;28.40;;;17.30;;
52043;SDS011;38053;53.100;6.078;2023-04-15T04:49:43;23.85;;;15.63;;
52043;SDS011;38053;53.100;6.078;2023-04-15T04:52:10;26.50;;;16.42;;
52043;SDS011;38053;53.100;6.078;2023-04-15T04:54:39;25.10;;;16.70;;
52043;SDS011;38053;53.100;6.078;2023-04-15T04:57:09;25.60;;;17.08;;
52043;SDS011;38053;53.100;6.078;2023-04-15T04:59:34;29.10;;;19.40;;
52043;SDS011;38053;53.100;6.078;2023-04-15T05:02:00;23.77;;;16.23;;
52043;SDS011;38053;53.100;6.078;2023-04-15T05:04:27;28.83;;;16.55;;
52043;SDS011;38053;53.100;6.078;2023-04-15T05:06:53;22.88;;;15.00;;
52043;SDS011;38053;53.100;6.078;2023-04-15T05:09:18;26.65;;;16.48;;
52043;SDS011;38053;53.100;6.078;2023-04-15T05:11:44;27.38;;;16.55;;
52043;SDS011;38053;53.100;6.078;2023-04-15T05:14:10;26.00;;;15.55;;
52043;SDS011;38053;53.100;6.078;2023-04-15T05:16:35;28.75;;;16.92;;
52043;SDS011;38053;53.100;6.078;2023-04-15T05:19:01;25.77;;;16.23;;
52043;SDS011;38053;53.100;6.078;2023-04-15T05:21:27;29.40;;;16.98;;
52043;SDS011;38053;53.100;6.078;2023-04-15T05:23:52;30.70;;;18.48;;
52043;SDS011;38053;53.100;6.078;2023-04-15T05:26:18;27.65;;;16.10;;
52043;SDS011;38053;53.100;6.078;2023-04-15T05:28:45;27.73;;;18.17;;
52043;SDS011;38053;53.100;6.078;2023-04-15T05:31:12;28.00;;;19.50;;
52043;SDS011;38053;53.100;6.078;2023-04-15T05:33:38;32.67;;;18.90;;
52043;SDS011;38053;53.100;6.078;2023-04-15T05:36:04;30.00;;;19.08;;
52043;SDS011;38053;53.100;6.078;2023-04-15T05:38:30;32.60;;;17.98;;
52043;SDS011;38053;53.100;6.078;2023-04-15T05:40:56;29.98;;;18.38;;
52043;SDS011;38053;53.100;6.078;2023-04-15T05:43:22;30.50;;;20.40;;
52043;SDS011;38053;53.100;6.078;2023-04-15T05:45:47;32.00;;;20.33;;
52043;SDS011;38053;53.100;6.078;2023-04-15T05:48:13;27.88;;;19.27;;
52043;SDS011;38053;53.100;6.078;2023-04-15T05:50:42;29.30;;;18.50;;
52043;SDS011;38053;53.100;6.078;2023-04-15T05:53:08;27.83;;;18.98;;
52043;SDS011;38053;53.100;6.078;2023-04-15T05:55:34;26.05;;;16.23;;
52043;SDS011;38053;53.100;6.078;2023-04-15T05:57:59;28.13;;;16.27;;
52043;SDS011;38053;53.100;6.078;2023-04-15T06:00:25;23.48;;;15.90;;
52043;SDS011;38053;53.100;6.078;2023-04-15T06:02:51;27.48;;;17.25;;
52043;SDS011;38053;53.100;6.078;2023-04-15T06:05:17;25.15;;;15.02;;
52043;SDS011;38053;53.100;6.078;2023-04-15T06:07:43;26.52;;;16.77;;
52043;SDS011;38053;53.100;6.078;2023-04-15T06:10:09;23.35;;;15.43;;
52043;SDS011;38053;53.100;6.078;2023-04-15T06:12:35;24.70;;;14.43;;
52043;SDS011;38053;53.100;6.078;2023-04-15T06:15:00;27.50;;;16.25;;
52043;SDS011;38053;53.100;6.078;2023-04-15T06:17:28;31.27;;;16.58;;
52043;SDS011;38053;53.100;6.078;2023-04-15T06:19:53;21.17;;;15.00;;
52043;SDS011;38053;53.100;6.078;2023-04-15T06:22:20;27.00;;;15.95;;
52043;SDS011;38053;53.100;6.078;2023-04-15T06:24:47;23.25;;;15.68;;
52043;SDS011;38053;53.100;6.078;2023-04-15T06:27:17;21.20;;;14.73;;
52043;SDS011;38053;53.100;6.078;2023-04-15T06:29:43;21.90;;;14.55;;
52043;SDS011;38053;53.100;6.078;2023-04-15T06:32:09;19.80;;;13.80;;
52043;SDS011;38053;53.100;6.078;2023-04-15T06:34:35;25.98;;;14.45;;
52043;SDS011;38053;53.100;6.078;2023-04-15T06:37:01;22.33;;;14.68;;
52043;SDS011;38053;53.100;6.078;2023-04-15T06:39:30;19.88;;;13.40;;
52043;SDS011;38053;53.100;6.078;2023-04-15T06:41:56;21.15;;;15.15;;
52043;SDS011;38053;53.100;6.078;2023-04-15T06:44:22;22.50;;;15.35;;
52043;SDS011;38053;53.100;6.078;2023-04-15T06:46:48;22.00;;;14.20;;
52043;SDS011;38053;53.100;6.078;2023-04-15T06:49:13;19.30;;;13.57;;
52043;SDS011;38053;53.100;6.078;2023-04-15T06:51:41;21.05;;;14.60;;
52043;SDS011;38053;53.100;6.078;2023-04-15T06:54:07;19.83;;;12.35;;
52043;SDS011;38053;53.100;6.078;2023-04-15T06:56:32;19.45;;;12.68;;
52043;SDS011;38053;53.100;6.078;2023-04-15T06:58:58;21.17;;;12.77;;
52043;SDS011;38053;53.100;6.078;2023-04-15T07:01:24;19.50;;;13.02;;
52043;SDS011;38053;53.100;6.078;2023-04-15T07:03:50;22.58;;;13.93;;
52043;SDS011;38053;53.100;6.078;2023-04-15T07:06:15;18.73;;;13.20;;
52043;SDS011;38053;53.100;6.078;2023-04-15T07:08:41;20.27;;;13.25;;
52043;SDS011;38053;53.100;6.078;2023-04-15T07:11:07;16.65;;;12.32;;
52043;SDS011;38053;53.100;6.078;2023-04-15T07:13:34;21.70;;;13.60;;
52043;SDS011;38053;53.100;6.078;2023-04-15T07:15:59;20.30;;;12.02;;
52043;SDS011;38053;53.100;6.078;2023-04-15T07:18:25;18.95;;;11.57;;
52043;SDS011;38053;53.100;6.078;2023-04-15T07:20:51;17.38;;;10.38;;
52043;SDS011;38053;53.100;6.078;2023-04-15T07:23:16;19.88;;;11.80;;
52043;SDS011;38053;53.100;6.078;2023-04-15T07:25:42;19.00;;;11.93;;
52043;SDS011;38053;53.100;6.078;2023-04-15T07:28:08;16.80;;;10.05;;
52043;SDS011;38053;53.100;6.078;2023-04-15T07:30:33;15.45;;;10.07;;
52043;SDS011;38053;53.100;6.078;2023-04-15T07:33:00;17.20;;;10.35;;
52043;SDS011;38053;53.100;6.078;2023-04-15T07:35:26;15.10;;;9.80;;
52043;SDS011;38053;53.100;6.078;2023-04-15T07:37:52;14.05;;;9.05;;
52043;SDS011;38053;53.100;6.078;2023-04-15T07:40:18;12.07;;;7.53;;
52043;SDS011;38053;53.100;6.078;2023-04-15T07:42:43;12.10;;;8.55;;
52043;SDS011;38053;53.100;6.078;2023-04-15T07:45:09;16.80;;;9.10;;
52043;SDS011;38053;53.100;6.078;2023-04-15T07:47:36;14.07;;;7.10;;
52043;SDS011;38053;53.100;6.078;2023-04-15T07:50:02;12.13;;;6.32;;
52043;SDS011;38053;53.100;6.078;2023-04-15T07:52:28;9.68;;;6.45;;
52043;SDS011;38053;53.100;6.078;2023-04-15T07:54:54;10.27;;;5.80;;
52043;SDS011;38053;53.100;6.078;2023-04-15T07:57:20;11.27;;;6.13;;
52043;SDS011;38053;53.100;6.078;2023-04-15T07:59:45;8.40;;;5.38;;
52043;SDS011;38053;53.100;6.078;2023-04-15T08:02:12;7.88;;;5.32;;
52043;SDS011;38053;53.100;6.078;2023-04-15T08:04:38;10.02;;;5.40;;
52043;SDS011;38053;53.100;6.078;2023-04-15T08:07:04;8.98;;;5.40;;
52043;SDS011;38053;53.100;6.078;2023-04-15T08:09:30;24.10;;;4.85;;
52043;SDS011;38053;53.100;6.078;2023-04-15T08:11:55;7.70;;;4.38;;
52043;SDS011;38053;53.100;6.078;2023-04-15T08:14:21;7.90;;;4.65;;
52043;SDS011;38053;53.100;6.078;2023-04-15T08:19:34;11.40;;;5.22;;
52043;SDS011;38053;53.100;6.078;2023-04-15T08:22:00;9.30;;;4.30;;
52043;SDS011;38053;53.100;6.078;2023-04-15T08:24:26;21.15;;;5.70;;
52043;SDS011;38053;53.100;6.078;2023-04-15T08:26:52;16.88;;;6.00;;
52043;SDS011;38053;53.100;6.078;2023-04-15T08:29:21;9.73;;;3.72;;
52043;SDS011;38053;53.100;6.078;2023-04-15T08:31:47;33.15;;;10.13;;
52043;SDS011;38053;53.100;6.078;2023-04-15T08:34:13;15.98;;;5.40;;
52043;SDS011;38053;53.100;6.078;2023-04-15T08:36:55;11.18;;;5.40;;
52043;SDS011;38053;53.100;6.078;2023-04-15T08:39:20;9.52;;;3.80;;
52043;SDS011;38053;53.100;6.078;2023-04-15T08:41:47;16.45;;;6.32;;
52043;SDS011;38053;53.100;6.078;2023-04-15T08:44:18;28.13;;;7.35;;
52043;SDS011;38053;53.100;6.078;2023-04-15T08:46:44;12.10;;;5.53;;
52043;SDS011;38053;53.100;6.078;2023-04-15T08:49:11;20.42;;;7.85;;
52043;SDS011;38053;53.100;6.078;2023-04-15T08:51:39;20.02;;;5.05;;
52043;SDS011;38053;53.100;6.078;2023-04-15T08:54:06;8.45;;;5.32;;
52043;SDS011;38053;53.100;6.078;2023-04-15T08:56:33;7.55;;;4.70;;
52043;SDS011;38053;53.100;6.078;2023-04-15T08:58:59;14.77;;;5.43;;
52043;SDS011;38053;53.100;6.078;2023-04-15T09:01:25;15.35;;;6.95;;
52043;SDS011;38053;53.100;6.078;2023-04-15T09:03:51;10.82;;;4.93;;
52043;SDS011;38053;53.100;6.078;2023-04-15T09:06:21;9.32;;;5.03;;
52043;SDS011;38053;53.100;6.078;2023-04-15T09:08:47;15.27;;;5.03;;
52043;SDS011;38053;53.100;6.078;2023-04-15T09:11:14;9.88;;;4.80;;
52043;SDS011;38053;53.100;6.078;2023-04-15T09:13:41;18.80;;;8.68;;
52043;SDS011;38053;53.100;6.078;2023-04-15T09:16:07;21.13;;;8.32;;
52043;SDS011;38053;53.100;6.078;2023-04-15T09:18:35;27.85;;;9.02;;
52043;SDS011;38053;53.100;6.078;2023-04-15T09:21:03;6.05;;;3.50;;
52043;SDS011;38053;53.100;6.078;2023-04-15T09:23:35;29.75;;;9.95;;
52043;SDS011;38053;53.100;6.078;2023-04-15T09:26:02;17.38;;;6.63;;
52043;SDS011;38053;53.100;6.078;2023-04-15T09:28:28;23.27;;;8.20;;
52043;SDS011;38053;53.100;6.078;2023-04-15T09:30:58;12.68;;;5.40;;
52043;SDS011;38053;53.100;6.078;2023-04-15T09:33:25;137.60;;;30.48;;
52043;SDS011;38053;53.100;6.078;2023-04-15T09:36:10;16.77;;;5.60;;
52043;SDS011;38053;53.100;6.078;2023-04-15T09:38:37;7.47;;;3.38;;
52043;SDS011;38053;53.100;6.078;2023-04-15T09:41:23;7.95;;;2.88;;
52043;SDS011;38053;53.100;6.078;2023-04-15T09:43:49;10.60;;;3.85;;
52043;SDS011;38053;53.100;6.078;2023-04-15T09:46:16;5.68;;;2.67;;
52043;SDS011;38053;53.100;6.078;2023-04-15T09:48:42;7.25;;;3.25;;
52043;SDS011;38053;53.100;6.078;2023-04-15T09:51:08;6.80;;;2.55;;
52043;SDS011;38053;53.100;6.078;2023-04-15T09:53:34;9.30;;;2.80;;
52043;SDS011;38053;53.100;6.078;2023-04-15T09:56:02;9.65;;;3.80;;
52043;SDS011;38053;53.100;6.078;2023-04-15T09:58:28;4.53;;;1.80;;
52043;SDS011;38053;53.100;6.078;2023-04-15T10:00:57;8.57;;;2.10;;
52043;SDS011;38053;53.100;6.078;2023-04-15T10:03:28;11.23;;;2.30;;
52043;SDS011;38053;53.100;6.078;2023-04-15T10:05:57;5.38;;;1.83;;
52043;SDS011;38053;53.100;6.078;2023-04-15T10:08:28;7.90;;;2.38;;
52043;SDS011;38053;53.100;6.078;2023-04-15T10:10:55;3.72;;;1.88;;
52043;SDS011;38053;53.100;6.078;2023-04-15T10:13:25;6.13;;;2.10;;
52043;SDS011;38053;53.100;6.078;2023-04-15T10:15:55;8.52;;;3.35;;
52043;SDS011;38053;53.100;6.078;2023-04-15T10:18:24;6.60;;;2.65;;
52043;SDS011;38053;53.100;6.078;2023-04-15T10:20:52;6.85;;;2.47;;
52043;SDS011;38053;53.100;6.078;2023-04-15T10:23:19;9.88;;;2.28;;
52043;SDS011;38053;53.100;6.078;2023-04-15T10:25:47;5.75;;;1.90;;
52043;SDS011;38053;53.100;6.078;2023-04-15T10:28:15;8.25;;;3.60;;
52043;SDS011;38053;53.100;6.078;2023-04-15T10:30:43;6.05;;;1.90;;
52043;SDS011;38053;53.100;6.078;2023-04-15T10:33:09;11.85;;;3.45;;
52043;SDS011;38053;53.100;6.078;2023-04-15T10:35:35;5.47;;;1.70;;
52043;SDS011;38053;53.100;6.078;2023-04-15T10:38:01;5.65;;;2.03;;
52043;SDS011;38053;53.100;6.078;2023-04-15T10:40:47;9.32;;;2.53;;
52043;SDS011;38053;53.100;6.078;2023-04-15T10:43:23;9.52;;;3.03;;
52043;SDS011;38053;53.100;6.078;2023-04-15T10:45:52;6.65;;;2.38;;
52043;SDS011;38053;53.100;6.078;2023-04-15T10:48:18;19.80;;;6.25;;
52043;SDS011;38053;53.100;6.078;2023-04-15T10:50:54;7.10;;;1.80;;
52043;SDS011;38053;53.100;6.078;2023-04-15T10:53:27;5.18;;;2.45;;
52043;SDS011;38053;53.100;6.078;2023-04-15T10:55:54;10.38;;;3.20;;
52043;SDS011;38053;53.100;6.078;2023-04-15T10:58:24;7.20;;;2.95;;
52043;SDS011;38053;53.100;6.078;2023-04-15T11:01:04;6.05;;;2.35;;
52043;SDS011;38053;53.100;6.078;2023-04-15T11:03:38;5.03;;;1.40;;
52043;SDS011;38053;53.100;6.078;2023-04-15T11:06:06;8.48;;;2.72;;
52043;SDS011;38053;53.100;6.078;2023-04-15T11:08:51;5.53;;;2.00;;
52043;SDS011;38053;53.100;6.078;2023-04-15T11:11:19;4.05;;;1.52;;
52043;SDS011;38053;53.100;6.078;2023-04-15T11:13:49;5.80;;;2.00;;
52043;SDS011;38053;53.100;6.078;2023-04-15T11:16:26;12.20;;;4.28;;
52043;SDS011;38053;53.100;6.078;2023-04-15T11:21:25;11.80;;;2.42;;
52043;SDS011;38053;53.100;6.078;2023-04-15T11:23:55;10.07;;;3.65;;
52043;SDS011;38053;53.100;6.078;2023-04-15T11:26:24;5.28;;;2.03;;
52043;SDS011;38053;53.100;6.078;2023-04-15T11:28:51;7.75;;;1.60;;
52043;SDS011;38053;53.100;6.078;2023-04-15T11:31:17;5.32;;;2.00;;
52043;SDS011;38053;53.100;6.078;2023-04-15T11:33:44;9.93;;;2.30;;
52043;SDS011;38053;53.100;6.078;2023-04-15T11:36:26;21.63;;;3.50;;
52043;SDS011;38053;53.100;6.078;2023-04-15T11:38:54;16.02;;;5.07;;
52043;SDS011;38053;53.100;6.078;2023-04-15T11:41:22;19.75;;;5.13;;
52043;SDS011;38053;53.100;6.078;2023-04-15T11:43:49;34.10;;;9.93;;
52043;SDS011;38053;53.100;6.078;2023-04-15T11:46:15;42.97;;;13.85;;
52043;SDS011;38053;53.100;6.078;2023-04-15T11:48:51;11.40;;;2.60;;
52043;SDS011;38053;53.100;6.078;2023-04-15T11:51:16;10.13;;;2.47;;
52043;SDS011;38053;53.100;6.078;2023-04-15T11:53:45;6.20;;;2.95;;
52043;SDS011;38053;53.100;6.078;2023-04-15T11:56:22;8.95;;;3.05;;
52043;SDS011;38053;53.100;6.078;2023-04-15T11:58:53;10.25;;;2.30;;
52043;SDS011;38053;53.100;6.078;2023-04-15T12:01:39;8.85;;;2.47;;
52043;SDS011;38053;53.100;6.078;2023-04-15T12:04:11;6.38;;;1.95;;
52043;SDS011;38053;53.100;6.078;2023-04-15T12:06:43;6.43;;;1.77;;
52043;SDS011;38053;53.100;6.078;2023-04-15T12:09:10;3.30;;;1.25;;
52043;SDS011;38053;53.100;6.078;2023-04-15T12:11:43;5.32;;;1.85;;
52043;SDS011;38053;53.100;6.078;2023-04-15T12:17:00;6.18;;;1.70;;
52043;SDS011;38053;53.100;6.078;2023-04-15T12:19:33;4.38;;;1.67;;
52043;SDS011;38053;53.100;6.078;2023-04-15T12:22:05;6.68;;;2.00;;
52043;SDS011;38053;53.100;6.078;2023-04-15T12:24:34;9.90;;;2.95;;
52043;SDS011;38053;53.100;6.078;2023-04-15T12:27:02;8.57;;;3.50;;
52043;SDS011;38053;53.100;6.078;2023-04-15T12:29:29;8.98;;;2.55;;
52043;SDS011;38053;53.100;6.078;2023-04-15T12:32:05;12.57;;;2.40;;
52043;SDS011;38053;53.100;6.078;2023-04-15T12:34:51;11.32;;;2.83;;
52043;SDS011;38053;53.100;6.078;2023-04-15T12:37:20;6.25;;;1.88;;
52043;SDS011;38053;53.100;6.078;2023-04-15T12:39:48;12.80;;;4.13;;
52043;SDS011;38053;53.100;6.078;2023-04-15T12:42:16;9.52;;;1.75;;
52043;SDS011;38053;53.100;6.078;2023-04-15T12:44:42;11.25;;;1.90;;
52043;SDS011;38053;53.100;6.078;2023-04-15T12:47:10;10.23;;;1.80;;
52043;SDS011;38053;53.100;6.078;2023-04-15T12:49:36;9.00;;;1.85;;
52043;SDS011;38053;53.100;6.078;2023-04-15T12:52:04;11.80;;;4.15;;
52043;SDS011;38053;53.100;6.078;2023-04-15T12:54:30;14.63;;;2.83;;
52043;SDS011;38053;53.100;6.078;2023-04-15T12:56:56;9.90;;;1.77;;
52043;SDS011;38053;53.100;6.078;2023-04-15T12:59:26;11.75;;;2.40;;
52043;SDS011;38053;53.100;6.078;2023-04-15T13:01:53;6.03;;;1.58;;
52043;SDS011;38053;53.100;6.078;2023-04-15T13:04:19;8.90;;;1.60;;
52043;SDS011;38053;53.100;6.078;2023-04-15T13:06:45;7.97;;;1.73;;
52043;SDS011;38053;53.100;6.078;2023-04-15T13:09:11;6.60;;;1.60;;
52043;SDS011;38053;53.100;6.078;2023-04-15T13:11:37;14.75;;;2.60;;
52043;SDS011;38053;53.100;6.078;2023-04-15T13:14:04;6.20;;;1.75;;
52043;SDS011;38053;53.100;6.078;2023-04-15T13:16:31;14.02;;;1.42;;
52043;SDS011;38053;53.100;6.078;2023-04-15T13:19:01;8.63;;;1.70;;
52043;SDS011;38053;53.100;6.078;2023-04-15T13:21:28;15.75;;;2.13;;
52043;SDS011;38053;53.100;6.078;2023-04-15T13:23:56;9.98;;;2.83;;
52043;SDS011;38053;53.100;6.078;2023-04-15T13:26:21;9.55;;;1.90;;
52043;SDS011;38053;53.100;6.078;2023-04-15T13:28:51;14.55;;;2.35;;
52043;SDS011;38053;53.100;6.078;2023-04-15T13:31:17;19.58;;;3.20;;
52043;SDS011;38053;53.100;6.078;2023-04-15T13:33:42;16.15;;;2.95;;
52043;SDS011;38053;53.100;6.078;2023-04-15T13:36:11;16.40;;;2.38;;
52043;SDS011;38053;53.100;6.078;2023-04-15T13:38:37;8.48;;;2.42;;
52043;SDS011;38053;53.100;6.078;2023-04-15T13:41:04;16.15;;;2.42;;
52043;SDS011;38053;53.100;6.078;2023-04-15T13:43:30;11.27;;;3.33;;
52043;SDS011;38053;53.100;6.078;2023-04-15T13:45:58;16.88;;;2.55;;
52043;SDS011;38053;53.100;6.078;2023-04-15T13:48:24;6.55;;;1.83;;
52043;SDS011;38053;53.100;6.078;2023-04-15T13:50:50;14.75;;;2.47;;
52043;SDS011;38053;53.100;6.078;2023-04-15T13:53:18;10.18;;;1.83;;
52043;SDS011;38053;53.100;6.078;2023-04-15T13:55:43;11.40;;;2.58;;
52043;SDS011;38053;53.100;6.078;2023-04-15T13:58:09;16.67;;;2.05;;
52043;SDS011;38053;53.100;6.078;2023-04-15T14:00:37;9.75;;;2.05;;
52043;SDS011;38053;53.100;6.078;2023-04-15T14:03:03;15.48;;;2.60;;
52043;SDS011;38053;53.100;6.078;2023-04-15T14:05:29;16.55;;;3.45;;
52043;SDS011;38053;53.100;6.078;2023-04-15T14:07:55;10.90;;;2.40;;
52043;SDS011;38053;53.100;6.078;2023-04-15T14:10:30;6.63;;;1.50;;
52043;SDS011;38053;53.100;6.078;2023-04-15T14:12:56;11.52;;;2.13;;
52043;SDS011;38053;53.100;6.078;2023-04-15T14:15:24;10.30;;;2.58;;
52043;SDS011;38053;53.100;6.078;2023-04-15T14:17:50;12.05;;;3.28;;
52043;SDS011;38053;53.100;6.078;2023-04-15T14:20:20;19.83;;;3.65;;
52043;SDS011;38053;53.100;6.078;2023-04-15T14:22:45;11.77;;;2.60;;
52043;SDS011;38053;53.100;6.078;2023-04-15T14:25:11;7.15;;;1.77;;
52043;SDS011;38053;53.100;6.078;2023-04-15T14:27:39;7.80;;;1.65;;
52043;SDS011;38053;53.100;6.078;2023-04-15T14:30:05;7.10;;;1.58;;
52043;SDS011;38053;53.100;6.078;2023-04-15T14:32:31;13.95;;;2.03;;
52043;SDS011;38053;53.100;6.078;2023-04-15T14:34:57;11.95;;;2.97;;
52043;SDS011;38053;53.100;6.078;2023-04-15T14:37:22;6.65;;;1.60;;
52043;SDS011;38053;53.100;6.078;2023-04-15T14:39:48;4.78;;;1.70;;
52043;SDS011;38053;53.100;6.078;2023-04-15T14:42:14;12.40;;;2.58;;
52043;SDS011;38053;53.100;6.078;2023-04-15T14:44:39;12.40;;;2.55;;